sensor_id;sensor_type;location;lat;lon;timestamp;pressure;altitude;pressure_sealevel;temperature;humidity
59686;BME280;45554;51.096;16.976;2022-08-11T00:01:52;101020.37;;;18.44;49.71
59686;BME280;45554;51.096;16.976;2022-08-11T00:04:25;101023.30;;;18.35;50.03
59686;BME280;45554;51.096;16.976;2022-08-11T00:07:01;101024.89;;;18.31;50.16
59686;BME280;45554;51.096;16.976;2022-08-11T00:09:33;101025.53;;;18.25;50.35
59686;BME280;45554;51.096;16.976;2022-08-11T00:12:15;101025.85;;;18.20;50.56
59686;BME280;45554;51.096;16.976;2022-08-11T00:14:45;101020.49;;;18.16;50.70
59686;BME280;45554;51.096;16.976;2022-08-11T00:17:14;101020.25;;;18.12;50.77
59686;BME280;45554;51.096;16.976;2022-08-11T00:19:45;101022.52;;;18.10;50.95
59686;BME280;45554;51.096;16.976;2022-08-11T00:22:37;101018.04;;;18.06;51.06
59686;BME280;45554;51.096;16.976;2022-08-11T00:25:17;101021.54;;;18.02;51.15
59686;BME280;45554;51.096;16.976;2022-08-11T00:27:47;101020.74;;;17.98;51.42
59686;BME280;45554;51.096;16.976;2022-08-11T00:30:15;101019.56;;;17.95;51.67
59686;BME280;45554;51.096;16.976;2022-08-11T00:32:54;101017.90;;;17.91;51.89
59686;BME280;45554;51.096;16.976;2022-08-11T00:35:27;101016.45;;;17.87;52.08
59686;BME280;45554;51.096;16.976;2022-08-11T00:38:21;101014.98;;;17.80;52.30
59686;BME280;45554;51.096;16.976;2022-08-11T00:41:00;101015.00;;;17.72;52.49
59686;BME280;45554;51.096;16.976;2022-08-11T00:44:04;101016.00;;;17.63;52.76
59686;BME280;45554;51.096;16.976;2022-08-11T01:07:23;101018.59;;;16.99;54.96
59686;BME280;45554;51.096;16.976;2022-08-11T01:10:43;101016.84;;;16.89;55.42
59686;BME280;45554;51.096;16.976;2022-08-11T01:13:32;101018.30;;;16.80;55.77
59686;BME280;45554;51.096;16.976;2022-08-11T01:16:23;101016.38;;;16.72;56.02
59686;BME280;45554;51.096;16.976;2022-08-11T01:25:29;101016.23;;;16.46;56.94
59686;BME280;45554;51.096;16.976;2022-08-11T01:28:52;101018.27;;;16.34;57.26
59686;BME280;45554;51.096;16.976;2022-08-11T01:44:51;101023.89;;;15.91;59.03
59686;BME280;45554;51.096;16.976;2022-08-11T01:47:38;101024.37;;;15.84;59.30
59686;BME280;45554;51.096;16.976;2022-08-11T01:50:34;101019.13;;;15.78;59.60
59686;BME280;45554;51.096;16.976;2022-08-11T01:58:35;101023.23;;;15.66;60.30
59686;BME280;45554;51.096;16.976;2022-08-11T02:04:09;101025.33;;;15.58;60.84
59686;BME280;45554;51.096;16.976;2022-08-11T02:12:08;101022.06;;;15.43;61.51
59686;BME280;45554;51.096;16.976;2022-08-11T02:14:44;101024.52;;;15.40;61.77
59686;BME280;45554;51.096;16.976;2022-08-11T02:20:13;101023.32;;;15.31;62.27
59686;BME280;45554;51.096;16.976;2022-08-11T02:23:30;101024.24;;;15.24;62.39
59686;BME280;45554;51.096;16.976;2022-08-11T02:27:05;101024.73;;;15.20;62.85
59686;BME280;45554;51.096;16.976;2022-08-11T02:32:49;101023.23;;;15.09;63.18
59686;BME280;45554;51.096;16.976;2022-08-11T02:38:42;101026.28;;;15.03;63.68
59686;BME280;45554;51.096;16.976;2022-08-11T02:41:25;101021.54;;;15.00;63.85
59686;BME280;45554;51.096;16.976;2022-08-11T02:50:22;101022.33;;;14.90;64.33
59686;BME280;45554;51.096;16.976;2022-08-11T02:53:27;101027.80;;;14.87;64.42
59686;BME280;45554;51.096;16.976;2022-08-11T02:56:15;101023.34;;;14.85;64.57
59686;BME280;45554;51.096;16.976;2022-08-11T02:59:13;101018.52;;;14.82;64.77
59686;BME280;45554;51.096;16.976;2022-08-11T03:10:27;101027.95;;;14.69;65.29
59686;BME280;45554;51.096;16.976;2022-08-11T03:13:14;101030.20;;;14.67;65.56
59686;BME280;45554;51.096;16.976;2022-08-11T03:16:28;101032.14;;;14.61;65.61
59686;BME280;45554;51.096;16.976;2022-08-11T03:19:27;101033.27;;;14.57;65.82
59686;BME280;45554;51.096;16.976;2022-08-11T03:22:08;101032.60;;;14.53;66.09
59686;BME280;45554;51.096;16.976;2022-08-11T03:24:56;101031.80;;;14.52;66.18
59686;BME280;45554;51.096;16.976;2022-08-11T03:27:58;101033.04;;;14.49;66.13
59686;BME280;45554;51.096;16.976;2022-08-11T03:33:31;101032.98;;;14.38;66.57
59686;BME280;45554;51.096;16.976;2022-08-11T03:39:19;101039.91;;;14.28;66.80
59686;BME280;45554;51.096;16.976;2022-08-11T03:45:06;101034.92;;;14.23;67.13
59686;BME280;45554;51.096;16.976;2022-08-11T03:47:56;101032.78;;;14.23;67.23
59686;BME280;45554;51.096;16.976;2022-08-11T03:50:57;101032.05;;;14.23;67.35
59686;BME280;45554;51.096;16.976;2022-08-11T03:56:50;101032.23;;;14.21;67.46
59686;BME280;45554;51.096;16.976;2022-08-11T04:02:17;101030.38;;;14.19;67.62
59686;BME280;45554;51.096;16.976;2022-08-11T04:08:20;101026.73;;;14.21;67.62
59686;BME280;45554;51.096;16.976;2022-08-11T04:22:48;101027.35;;;14.34;67.40
59686;BME280;45554;51.096;16.976;2022-08-11T04:34:34;101028.96;;;14.52;67.18
59686;BME280;45554;51.096;16.976;2022-08-11T04:43:00;101035.39;;;14.68;66.54
59686;BME280;45554;51.096;16.976;2022-08-11T05:04:57;101039.98;;;15.10;65.35
59686;BME280;45554;51.096;16.976;2022-08-11T05:13:33;101038.84;;;15.34;64.95
59686;BME280;45554;51.096;16.976;2022-08-11T05:16:34;101039.19;;;15.43;64.85
59686;BME280;45554;51.096;16.976;2022-08-11T05:19:28;101037.86;;;15.53;64.72
59686;BME280;45554;51.096;16.976;2022-08-11T05:22:18;101039.02;;;15.59;64.73
59686;BME280;45554;51.096;16.976;2022-08-11T05:25:08;101045.75;;;15.68;64.61
59686;BME280;45554;51.096;16.976;2022-08-11T05:28:48;101042.25;;;15.78;64.69
59686;BME280;45554;51.096;16.976;2022-08-11T05:31:54;101042.16;;;15.87;64.70
59686;BME280;45554;51.096;16.976;2022-08-11T05:34:45;101048.48;;;15.97;64.54
59686;BME280;45554;51.096;16.976;2022-08-11T05:40:07;101051.32;;;16.18;64.29
59686;BME280;45554;51.096;16.976;2022-08-11T05:42:58;101054.70;;;16.29;64.21
59686;BME280;45554;51.096;16.976;2022-08-11T05:46:00;101058.64;;;16.39;64.36
59686;BME280;45554;51.096;16.976;2022-08-11T05:48:48;101057.52;;;16.50;63.98
59686;BME280;45554;51.096;16.976;2022-08-11T05:51:40;101059.03;;;16.59;63.12
59686;BME280;45554;51.096;16.976;2022-08-11T05:54:41;101059.36;;;16.67;62.28
59686;BME280;45554;51.096;16.976;2022-08-11T05:57:36;101063.63;;;16.75;61.78
59686;BME280;45554;51.096;16.976;2022-08-11T06:00:27;101064.54;;;16.83;61.52
59686;BME280;45554;51.096;16.976;2022-08-11T06:03:00;101063.84;;;16.90;61.34
59686;BME280;45554;51.096;16.976;2022-08-11T06:05:39;101064.22;;;16.97;61.16
59686;BME280;45554;51.096;16.976;2022-08-11T06:08:17;101066.63;;;17.07;61.05
59686;BME280;45554;51.096;16.976;2022-08-11T06:10:58;101062.55;;;17.14;60.96
59686;BME280;45554;51.096;16.976;2022-08-11T06:13:27;101063.67;;;17.23;60.65
59686;BME280;45554;51.096;16.976;2022-08-11T06:15:56;101064.72;;;17.31;60.49
59686;BME280;45554;51.096;16.976;2022-08-11T06:18:30;101070.33;;;17.40;60.33
59686;BME280;45554;51.096;16.976;2022-08-11T06:20:59;101068.02;;;17.47;60.07
59686;BME280;45554;51.096;16.976;2022-08-11T06:23:32;101066.89;;;17.56;59.87
59686;BME280;45554;51.096;16.976;2022-08-11T06:26:11;101068.77;;;17.64;59.65
59686;BME280;45554;51.096;16.976;2022-08-11T06:28:43;101069.45;;;17.72;59.41
59686;BME280;45554;51.096;16.976;2022-08-11T06:31:16;101066.59;;;17.79;59.25
59686;BME280;45554;51.096;16.976;2022-08-11T06:34:08;101066.88;;;17.88;59.03
59686;BME280;45554;51.096;16.976;2022-08-11T06:39:46;101064.36;;;18.08;58.47
59686;BME280;45554;51.096;16.976;2022-08-11T06:42:33;101063.95;;;18.18;58.06
59686;BME280;45554;51.096;16.976;2022-08-11T06:45:56;101059.85;;;18.28;57.71
59686;BME280;45554;51.096;16.976;2022-08-11T06:47:56;101061.23;;;18.41;57.44
59686;BME280;45554;51.096;16.976;2022-08-11T06:50:28;101059.85;;;18.50;57.06
59686;BME280;45554;51.096;16.976;2022-08-11T06:53:17;101058.08;;;18.61;56.68
59686;BME280;45554;51.096;16.976;2022-08-11T06:55:49;101054.48;;;18.71;56.22
59686;BME280;45554;51.096;16.976;2022-08-11T06:58:39;101055.88;;;18.83;55.97
59686;BME280;45554;51.096;16.976;2022-08-11T07:01:41;101050.75;;;18.96;55.58
59686;BME280;45554;51.096;16.976;2022-08-11T07:04:31;101051.64;;;19.08;54.85
59686;BME280;45554;51.096;16.976;2022-08-11T07:13:09;101045.54;;;19.38;53.87
59686;BME280;45554;51.096;16.976;2022-08-11T07:16:18;101043.33;;;19.51;53.35
59686;BME280;45554;51.096;16.976;2022-08-11T07:19:14;101039.73;;;19.60;52.85
59686;BME280;45554;51.096;16.976;2022-08-11T07:22:05;101032.45;;;19.71;52.61
59686;BME280;45554;51.096;16.976;2022-08-11T07:25:13;101033.29;;;19.80;52.33
59686;BME280;45554;51.096;16.976;2022-08-11T07:28:24;101031.61;;;19.90;51.73
59686;BME280;45554;51.096;16.976;2022-08-11T07:31:15;101027.27;;;20.00;51.61
59686;BME280;45554;51.096;16.976;2022-08-11T07:33:47;101028.20;;;20.08;51.41
59686;BME280;45554;51.096;16.976;2022-08-11T07:36:38;101036.06;;;20.21;51.22
59686;BME280;45554;51.096;16.976;2022-08-11T07:39:14;101034.66;;;20.31;50.69
59686;BME280;45554;51.096;16.976;2022-08-11T07:41:43;101033.04;;;20.40;50.44
59686;BME280;45554;51.096;16.976;2022-08-11T07:44:15;101036.02;;;20.48;50.22
59686;BME280;45554;51.096;16.976;2022-08-11T07:46:46;101042.52;;;20.58;50.09
59686;BME280;45554;51.096;16.976;2022-08-11T07:49:35;101037.60;;;20.68;49.87
59686;BME280;45554;51.096;16.976;2022-08-11T07:52:24;101033.92;;;20.78;49.64
59686;BME280;45554;51.096;16.976;2022-08-11T07:55:05;101034.86;;;20.88;49.60
59686;BME280;45554;51.096;16.976;2022-08-11T07:57:37;101031.92;;;20.97;49.42
59686;BME280;45554;51.096;16.976;2022-08-11T08:00:53;101032.36;;;21.06;49.26
59686;BME280;45554;51.096;16.976;2022-08-11T08:03:49;101030.27;;;21.16;49.15
59686;BME280;45554;51.096;16.976;2022-08-11T08:06:37;101032.28;;;21.26;49.12
59686;BME280;45554;51.096;16.976;2022-08-11T08:09:32;101034.02;;;21.36;48.71
59686;BME280;45554;51.096;16.976;2022-08-11T08:12:22;101032.66;;;21.44;48.06
59686;BME280;45554;51.096;16.976;2022-08-11T08:15:13;101029.27;;;21.51;47.77
59686;BME280;45554;51.096;16.976;2022-08-11T08:18:04;101027.75;;;21.61;47.64
59686;BME280;45554;51.096;16.976;2022-08-11T08:20:55;101026.48;;;21.69;47.28
59686;BME280;45554;51.096;16.976;2022-08-11T08:23:43;101021.38;;;21.78;46.95
59686;BME280;45554;51.096;16.976;2022-08-11T08:26:23;101013.86;;;21.88;46.50
59686;BME280;45554;51.096;16.976;2022-08-11T08:29:19;101012.96;;;21.98;46.51
59686;BME280;45554;51.096;16.976;2022-08-11T08:32:06;101009.11;;;22.07;46.09
59686;BME280;45554;51.096;16.976;2022-08-11T08:34:36;101006.14;;;22.14;45.64
59686;BME280;45554;51.096;16.976;2022-08-11T08:37:05;101010.02;;;22.21;45.18
59686;BME280;45554;51.096;16.976;2022-08-11T08:39:54;101006.99;;;22.26;45.28
59686;BME280;45554;51.096;16.976;2022-08-11T08:42:25;101003.59;;;22.34;45.37
59686;BME280;45554;51.096;16.976;2022-08-11T08:45:09;101000.58;;;22.43;45.31
59686;BME280;45554;51.096;16.976;2022-08-11T08:47:41;100999.87;;;22.61;45.16
59686;BME280;45554;51.096;16.976;2022-08-11T08:50:12;100995.16;;;22.79;44.65
59686;BME280;45554;51.096;16.976;2022-08-11T08:52:51;100996.78;;;22.97;44.21
59686;BME280;45554;51.096;16.976;2022-08-11T08:55:21;100994.25;;;23.14;43.70
59686;BME280;45554;51.096;16.976;2022-08-11T08:57:53;100989.95;;;23.28;43.35
59686;BME280;45554;51.096;16.976;2022-08-11T09:00:23;100987.33;;;23.40;42.59
59686;BME280;45554;51.096;16.976;2022-08-11T09:02:51;100980.15;;;23.45;41.96
59686;BME280;45554;51.096;16.976;2022-08-11T09:05:19;100986.51;;;23.59;41.13
59686;BME280;45554;51.096;16.976;2022-08-11T09:07:49;100978.21;;;23.69;41.03
59686;BME280;45554;51.096;16.976;2022-08-11T09:10:21;100983.40;;;23.76;40.56
59686;BME280;45554;51.096;16.976;2022-08-11T09:12:49;100981.20;;;23.82;40.65
59686;BME280;45554;51.096;16.976;2022-08-11T09:15:18;100981.35;;;23.88;40.09
59686;BME280;45554;51.096;16.976;2022-08-11T09:17:53;100977.27;;;23.91;39.88
59686;BME280;45554;51.096;16.976;2022-08-11T09:20:26;100977.50;;;23.98;39.87
59686;BME280;45554;51.096;16.976;2022-08-11T09:22:57;100975.27;;;24.15;39.86
59686;BME280;45554;51.096;16.976;2022-08-11T09:26:04;100974.77;;;24.39;39.58
59686;BME280;45554;51.096;16.976;2022-08-11T09:28:58;100976.02;;;24.51;38.38
59686;BME280;45554;51.096;16.976;2022-08-11T09:31:30;100973.77;;;24.57;38.14
59686;BME280;45554;51.096;16.976;2022-08-11T09:34:08;100975.89;;;24.72;38.09
59686;BME280;45554;51.096;16.976;2022-08-11T09:36:38;100976.95;;;24.86;37.66
59686;BME280;45554;51.096;16.976;2022-08-11T09:39:28;100975.87;;;25.02;37.13
59686;BME280;45554;51.096;16.976;2022-08-11T09:42:19;100972.39;;;25.14;36.91
59686;BME280;45554;51.096;16.976;2022-08-11T09:44:50;100973.61;;;25.28;36.88
59686;BME280;45554;51.096;16.976;2022-08-11T09:47:24;100972.47;;;25.46;36.76
59686;BME280;45554;51.096;16.976;2022-08-11T09:49:56;100973.25;;;25.65;36.05
59686;BME280;45554;51.096;16.976;2022-08-11T09:52:29;100972.30;;;25.89;35.67
59686;BME280;45554;51.096;16.976;2022-08-11T09:55:00;100974.47;;;26.15;35.49
59686;BME280;45554;51.096;16.976;2022-08-11T09:57:29;100967.14;;;26.36;35.05
59686;BME280;45554;51.096;16.976;2022-08-11T10:00:15;100967.11;;;26.56;34.91
59686;BME280;45554;51.096;16.976;2022-08-11T10:02:46;100960.77;;;26.74;34.91
59686;BME280;45554;51.096;16.976;2022-08-11T10:05:17;100960.79;;;26.98;34.42
59686;BME280;45554;51.096;16.976;2022-08-11T10:08:06;100956.80;;;27.17;33.60
59686;BME280;45554;51.096;16.976;2022-08-11T10:10:37;100954.84;;;27.34;33.18
59686;BME280;45554;51.096;16.976;2022-08-11T10:13:15;100952.79;;;27.50;32.78
59686;BME280;45554;51.096;16.976;2022-08-11T10:16:06;100945.57;;;27.63;32.53
59686;BME280;45554;51.096;16.976;2022-08-11T10:18:48;100942.59;;;27.72;32.18
59686;BME280;45554;51.096;16.976;2022-08-11T10:21:26;100939.80;;;27.74;31.89
59686;BME280;45554;51.096;16.976;2022-08-11T10:23:58;100932.33;;;27.79;31.84
59686;BME280;45554;51.096;16.976;2022-08-11T10:26:48;100926.89;;;27.81;31.48
59686;BME280;45554;51.096;16.976;2022-08-11T10:29:23;100927.29;;;27.79;31.39
59686;BME280;45554;51.096;16.976;2022-08-11T10:32:13;100923.44;;;27.83;31.41
59686;BME280;45554;51.096;16.976;2022-08-11T10:35:23;100924.27;;;27.93;31.57
59686;BME280;45554;51.096;16.976;2022-08-11T10:37:54;100924.80;;;28.02;31.07
59686;BME280;45554;51.096;16.976;2022-08-11T10:40:38;100921.67;;;28.06;30.87
59686;BME280;45554;51.096;16.976;2022-08-11T10:43:08;100917.38;;;28.05;30.68
59686;BME280;45554;51.096;16.976;2022-08-11T10:46:14;100918.02;;;28.01;30.58
59686;BME280;45554;51.096;16.976;2022-08-11T10:49:00;100912.96;;;27.99;30.67
59686;BME280;45554;51.096;16.976;2022-08-11T10:51:31;100910.61;;;27.91;30.37
59686;BME280;45554;51.096;16.976;2022-08-11T10:54:24;100914.33;;;27.85;30.18
59686;BME280;45554;51.096;16.976;2022-08-11T10:57:13;100912.21;;;27.76;29.71
59686;BME280;45554;51.096;16.976;2022-08-11T11:00:04;100907.80;;;27.67;30.02
59686;BME280;45554;51.096;16.976;2022-08-11T11:02:33;100901.34;;;27.60;29.91
59686;BME280;45554;51.096;16.976;2022-08-11T11:05:22;100901.05;;;27.57;29.82
59686;BME280;45554;51.096;16.976;2022-08-11T11:10:53;100904.23;;;27.65;29.68
59686;BME280;45554;51.096;16.976;2022-08-11T11:13:24;100898.69;;;27.70;29.78
59686;BME280;45554;51.096;16.976;2022-08-11T11:16:26;100892.14;;;27.69;30.47
59686;BME280;45554;51.096;16.976;2022-08-11T11:19:14;100896.75;;;27.60;30.15
59686;BME280;45554;51.096;16.976;2022-08-11T11:21:51;100893.05;;;27.58;30.02
59686;BME280;45554;51.096;16.976;2022-08-11T11:24:41;100898.39;;;27.55;29.69
59686;BME280;45554;51.096;16.976;2022-08-11T11:30:15;100891.37;;;27.72;30.42
59686;BME280;45554;51.096;16.976;2022-08-11T11:33:01;100891.41;;;27.75;30.42
59686;BME280;45554;51.096;16.976;2022-08-11T11:35:46;100884.13;;;27.63;30.45
59686;BME280;45554;51.096;16.976;2022-08-11T11:38:16;100883.58;;;27.68;30.79
59686;BME280;45554;51.096;16.976;2022-08-11T11:40:46;100884.96;;;27.75;30.28
59686;BME280;45554;51.096;16.976;2022-08-11T11:43:36;100879.29;;;27.71;30.03
59686;BME280;45554;51.096;16.976;2022-08-11T11:46:08;100868.73;;;27.76;29.68
59686;BME280;45554;51.096;16.976;2022-08-11T11:48:37;100869.90;;;27.88;29.63
59686;BME280;45554;51.096;16.976;2022-08-11T11:51:09;100865.27;;;27.95;29.33
59686;BME280;45554;51.096;16.976;2022-08-11T11:53:44;100867.59;;;27.86;29.45
59686;BME280;45554;51.096;16.976;2022-08-11T11:56:14;100861.85;;;27.74;29.81
59686;BME280;45554;51.096;16.976;2022-08-11T11:58:44;100860.48;;;27.68;29.26
59686;BME280;45554;51.096;16.976;2022-08-11T12:01:32;100854.88;;;27.95;29.52
59686;BME280;45554;51.096;16.976;2022-08-11T12:04:05;100849.09;;;28.27;29.26
59686;BME280;45554;51.096;16.976;2022-08-11T12:06:33;100840.93;;;28.55;29.08
59686;BME280;45554;51.096;16.976;2022-08-11T12:09:04;100841.95;;;28.73;28.07
59686;BME280;45554;51.096;16.976;2022-08-11T12:11:33;100846.55;;;28.47;27.99
59686;BME280;45554;51.096;16.976;2022-08-11T12:14:19;100840.83;;;28.22;28.49
59686;BME280;45554;51.096;16.976;2022-08-11T12:16:48;100835.51;;;28.10;28.62
59686;BME280;45554;51.096;16.976;2022-08-11T12:19:21;100837.75;;;28.28;28.65
59686;BME280;45554;51.096;16.976;2022-08-11T12:21:54;100829.05;;;28.52;28.66
59686;BME280;45554;51.096;16.976;2022-08-11T12:24:49;100828.81;;;28.88;28.19
59686;BME280;45554;51.096;16.976;2022-08-11T12:27:37;100827.98;;;29.12;27.61
59686;BME280;45554;51.096;16.976;2022-08-11T12:30:07;100824.91;;;29.34;27.60
59686;BME280;45554;51.096;16.976;2022-08-11T12:32:41;100824.98;;;29.60;27.52
59686;BME280;45554;51.096;16.976;2022-08-11T12:35:14;100824.36;;;29.59;27.32
59686;BME280;45554;51.096;16.976;2022-08-11T12:37:51;100819.80;;;29.68;27.33
59686;BME280;45554;51.096;16.976;2022-08-11T12:40:38;100818.59;;;30.06;26.86
59686;BME280;45554;51.096;16.976;2022-08-11T12:43:47;100818.11;;;30.38;26.27
59686;BME280;45554;51.096;16.976;2022-08-11T12:46:42;100810.95;;;30.69;25.79
59686;BME280;45554;51.096;16.976;2022-08-11T12:49:16;100808.86;;;30.93;25.50
59686;BME280;45554;51.096;16.976;2022-08-11T12:52:19;100796.42;;;31.24;25.29
59686;BME280;45554;51.096;16.976;2022-08-11T12:55:16;100793.05;;;31.51;24.96
59686;BME280;45554;51.096;16.976;2022-08-11T12:58:04;100784.52;;;32.03;24.53
59686;BME280;45554;51.096;16.976;2022-08-11T13:00:44;100786.52;;;32.25;23.58
59686;BME280;45554;51.096;16.976;2022-08-11T13:03:33;100784.36;;;31.89;23.77
59686;BME280;45554;51.096;16.976;2022-08-11T13:06:23;100779.41;;;31.34;23.95
59686;BME280;45554;51.096;16.976;2022-08-11T13:08:55;100781.84;;;30.86;24.20
59686;BME280;45554;51.096;16.976;2022-08-11T13:11:28;100780.91;;;30.45;24.64
59686;BME280;45554;51.096;16.976;2022-08-11T13:14:25;100782.73;;;30.05;25.18
59686;BME280;45554;51.096;16.976;2022-08-11T13:16:54;100782.06;;;29.72;25.26
59686;BME280;45554;51.096;16.976;2022-08-11T13:19:42;100779.74;;;29.32;25.36
59686;BME280;45554;51.096;16.976;2022-08-11T13:22:18;100778.65;;;29.20;25.85
59686;BME280;45554;51.096;16.976;2022-08-11T13:24:51;100779.80;;;29.35;25.56
59686;BME280;45554;51.096;16.976;2022-08-11T13:27:23;100774.34;;;29.51;25.48
59686;BME280;45554;51.096;16.976;2022-08-11T13:29:53;100771.27;;;29.88;25.90
59686;BME280;45554;51.096;16.976;2022-08-11T13:32:43;100763.54;;;30.43;25.26
59686;BME280;45554;51.096;16.976;2022-08-11T13:35:13;100758.27;;;30.77;24.64
59686;BME280;45554;51.096;16.976;2022-08-11T13:37:46;100756.85;;;31.15;24.45
59686;BME280;45554;51.096;16.976;2022-08-11T13:40:35;100757.02;;;31.56;24.06
59686;BME280;45554;51.096;16.976;2022-08-11T13:43:22;100748.85;;;31.91;23.52
59686;BME280;45554;51.096;16.976;2022-08-11T13:45:53;100745.50;;;32.34;23.29
59686;BME280;45554;51.096;16.976;2022-08-11T13:48:42;100742.86;;;32.79;23.02
59686;BME280;45554;51.096;16.976;2022-08-11T13:51:17;100739.49;;;33.17;22.63
59686;BME280;45554;51.096;16.976;2022-08-11T13:54:32;100738.95;;;33.45;21.92
59686;BME280;45554;51.096;16.976;2022-08-11T13:57:16;100740.51;;;33.58;21.30
59686;BME280;45554;51.096;16.976;2022-08-11T14:00:12;100729.72;;;33.66;21.15
59686;BME280;45554;51.096;16.976;2022-08-11T14:02:56;100719.84;;;33.85;21.13
59686;BME280;45554;51.096;16.976;2022-08-11T14:06:07;100717.36;;;34.06;20.76
59686;BME280;45554;51.096;16.976;2022-08-11T14:08:39;100717.20;;;34.29;20.39
59686;BME280;45554;51.096;16.976;2022-08-11T14:11:21;100713.14;;;34.39;20.48
59686;BME280;45554;51.096;16.976;2022-08-11T14:14:48;100711.40;;;34.64;20.27
59686;BME280;45554;51.096;16.976;2022-08-11T14:18:13;100704.42;;;34.86;20.37
59686;BME280;45554;51.096;16.976;2022-08-11T14:21:14;100699.05;;;35.26;20.33
59686;BME280;45554;51.096;16.976;2022-08-11T14:24:10;100699.85;;;35.56;19.93
59686;BME280;45554;51.096;16.976;2022-08-11T14:26:53;100700.96;;;35.44;19.13
59686;BME280;45554;51.096;16.976;2022-08-11T14:29:34;100701.02;;;34.96;19.43
59686;BME280;45554;51.096;16.976;2022-08-11T14:32:26;100704.94;;;34.34;19.68
59686;BME280;45554;51.096;16.976;2022-08-11T14:35:23;100700.89;;;33.74;20.17
59686;BME280;45554;51.096;16.976;2022-08-11T14:37:52;100702.27;;;33.54;20.23
59686;BME280;45554;51.096;16.976;2022-08-11T14:40:22;100701.88;;;33.63;20.28
59686;BME280;45554;51.096;16.976;2022-08-11T14:43:39;100697.77;;;33.80;19.79
59686;BME280;45554;51.096;16.976;2022-08-11T14:47:33;100699.20;;;34.02;19.70
59686;BME280;45554;51.096;16.976;2022-08-11T14:50:32;100690.81;;;34.42;19.54
59686;BME280;45554;51.096;16.976;2022-08-11T14:53:26;100691.20;;;34.88;19.16
59686;BME280;45554;51.096;16.976;2022-08-11T14:56:08;100690.48;;;35.19;19.04
59686;BME280;45554;51.096;16.976;2022-08-11T14:58:59;100689.52;;;35.46;18.88
59686;BME280;45554;51.096;16.976;2022-08-11T15:01:56;100687.63;;;35.62;18.76
59686;BME280;45554;51.096;16.976;2022-08-11T15:07:40;100678.84;;;36.91;18.43
59686;BME280;45554;51.096;16.976;2022-08-11T15:10:16;100680.99;;;37.07;18.04
59686;BME280;45554;51.096;16.976;2022-08-11T15:17:23;100683.83;;;36.79;17.67
59686;BME280;45554;51.096;16.976;2022-08-11T15:20:15;100679.33;;;36.52;17.58
59686;BME280;45554;51.096;16.976;2022-08-11T15:23:38;100679.43;;;36.12;17.50
59686;BME280;45554;51.096;16.976;2022-08-11T15:26:38;100680.78;;;35.85;17.69
59686;BME280;45554;51.096;16.976;2022-08-11T15:29:29;100682.05;;;35.83;17.92
59686;BME280;45554;51.096;16.976;2022-08-11T15:32:18;100680.73;;;35.76;17.94
59686;BME280;45554;51.096;16.976;2022-08-11T15:34:58;100684.23;;;35.91;18.03
59686;BME280;45554;51.096;16.976;2022-08-11T15:37:49;100681.25;;;36.10;18.08
59686;BME280;45554;51.096;16.976;2022-08-11T15:40:27;100677.92;;;36.29;17.86
59686;BME280;45554;51.096;16.976;2022-08-11T15:46:31;100673.66;;;36.82;17.92
59686;BME280;45554;51.096;16.976;2022-08-11T15:49:04;100672.88;;;37.18;17.40
59686;BME280;45554;51.096;16.976;2022-08-11T15:54:10;100668.09;;;37.26;16.87
59686;BME280;45554;51.096;16.976;2022-08-11T15:56:43;100671.27;;;37.17;17.06
59686;BME280;45554;51.096;16.976;2022-08-11T15:59:14;100674.10;;;37.19;17.08
59686;BME280;45554;51.096;16.976;2022-08-11T16:02:13;100669.88;;;37.01;17.29
59686;BME280;45554;51.096;16.976;2022-08-11T16:05:12;100669.73;;;36.86;17.14
59686;BME280;45554;51.096;16.976;2022-08-11T16:08:04;100676.64;;;36.68;17.13
59686;BME280;45554;51.096;16.976;2022-08-11T16:10:33;100674.29;;;36.51;17.18
59686;BME280;45554;51.096;16.976;2022-08-11T16:13:05;100674.77;;;36.47;17.49
59686;BME280;45554;51.096;16.976;2022-08-11T16:15:38;100674.27;;;36.47;17.18
59686;BME280;45554;51.096;16.976;2022-08-11T16:18:42;100669.67;;;36.44;17.31
59686;BME280;45554;51.096;16.976;2022-08-11T16:21:16;100671.45;;;36.52;17.53
59686;BME280;45554;51.096;16.976;2022-08-11T16:24:06;100669.30;;;36.79;17.18
59686;BME280;45554;51.096;16.976;2022-08-11T16:26:56;100665.55;;;36.84;17.09
59686;BME280;45554;51.096;16.976;2022-08-11T16:29:46;100665.45;;;36.88;17.23
59686;BME280;45554;51.096;16.976;2022-08-11T16:32:17;100668.96;;;37.08;16.83
59686;BME280;45554;51.096;16.976;2022-08-11T16:34:54;100670.96;;;37.00;16.72
59686;BME280;45554;51.096;16.976;2022-08-11T16:37:43;100678.13;;;37.31;16.91
59686;BME280;45554;51.096;16.976;2022-08-11T16:40:32;100674.52;;;37.46;16.55
59686;BME280;45554;51.096;16.976;2022-08-11T16:43:05;100680.17;;;37.47;16.38
59686;BME280;45554;51.096;16.976;2022-08-11T16:45:54;100679.94;;;37.40;16.26
59686;BME280;45554;51.096;16.976;2022-08-11T16:48:45;100677.51;;;37.34;16.66
59686;BME280;45554;51.096;16.976;2022-08-11T16:51:14;100680.15;;;37.30;16.72
59686;BME280;45554;51.096;16.976;2022-08-11T16:53:43;100677.19;;;37.16;16.66
59686;BME280;45554;51.096;16.976;2022-08-11T16:56:38;100677.55;;;37.07;16.97
59686;BME280;45554;51.096;16.976;2022-08-11T16:59:47;100676.64;;;36.82;16.85
59686;BME280;45554;51.096;16.976;2022-08-11T17:02:23;100675.92;;;36.57;16.93
59686;BME280;45554;51.096;16.976;2022-08-11T17:05:14;100670.65;;;36.23;17.02
59686;BME280;45554;51.096;16.976;2022-08-11T17:08:35;100666.89;;;36.14;17.15